Time;durP1;ratioP1;P1;durP2;ratioP2;P2;SDS_P1;SDS_P2;PMS_P1;PMS_P2;Temp;Humidity;BMP_temperature;BMP_pressure;BME280_temperature;BME280_humidity;BME280_pressure;Samples;Min_cycle;Max_cycle;Signal;HPM_P1;HPM_P2
2023/07/19 00:01:21;;;;;;;5.87;2.47;;;18.60;80.50;;;18.54;56.14;100774.09;5074292;28;20221;-73
2023/07/19 00:03:53;;;;;;;3.03;2.00;;;18.60;80.80;;;18.51;56.51;100761.81;5074270;28;20193;-73
2023/07/19 00:06:27;;;;;;;3.87;2.40;;;18.50;81.10;;;18.51;56.42;100759.09;5074520;28;20312;-73
2023/07/19 00:08:59;;;;;;;6.33;2.67;;;18.50;81.10;;;18.48;56.91;100764.91;5074224;28;20284;-73
2023/07/19 00:11:31;;;;;;;5.33;2.87;;;18.60;81.90;;;18.45;57.57;100765.34;5074178;28;20194;-73
2023/07/19 00:14:05;;;;;;;6.30;2.17;;;18.50;82.30;;;18.46;57.13;100764.28;5073785;28;20654;-73
2023/07/19 00:16:38;;;;;;;4.87;2.43;;;18.50;82.10;;;18.45;57.28;100761.78;5073675;28;20263;-73
2023/07/19 00:19:09;;;;;;;6.50;2.47;;;18.50;82.10;;;18.42;57.67;100754.09;5073708;28;20634;-73
2023/07/19 00:21:52;;;;;;;5.73;2.43;;;18.40;82.60;;;18.37;58.05;100753.88;5073881;28;20213;-73
2023/07/19 00:24:24;;;;;;;4.30;2.20;;;18.40;83.20;;;18.37;58.31;100752.00;5073633;28;20631;-73
2023/07/19 00:26:57;;;;;;;4.57;2.40;;;18.40;83.80;;;18.33;58.11;100749.91;5073522;28;20312;-73
2023/07/19 00:29:29;;;;;;;3.67;2.37;;;18.40;83.90;;;18.30;58.29;100745.75;5073904;28;20227;-73
2023/07/19 00:32:01;;;;;;;3.00;2.40;;;18.30;83.60;;;18.29;57.87;100749.50;5073831;28;20189;-73
2023/07/19 00:34:33;;;;;;;5.43;2.57;;;18.30;83.50;;;18.23;57.81;100737.63;5073806;28;20280;-73
2023/07/19 00:37:07;;;;;;;7.30;2.90;;;18.30;83.30;;;18.24;57.89;100735.75;5073686;28;20331;-73
2023/07/19 00:39:39;;;;;;;4.40;2.50;;;18.30;83.60;;;18.22;57.98;100732.41;5073002;28;20713;-73
2023/07/19 00:42:11;;;;;;;4.87;2.40;;;18.30;83.40;;;18.18;57.85;100728.47;5073296;28;20229;-73
2023/07/19 00:44:43;;;;;;;4.27;2.30;;;18.20;83.20;;;18.17;57.82;100718.66;5074493;28;20189;-73
2023/07/19 00:47:15;;;;;;;3.67;2.73;;;18.20;83.70;;;18.19;57.61;100716.56;5073571;28;20280;-73
2023/07/19 00:49:48;;;;;;;4.67;2.37;;;18.20;83.80;;;18.15;57.87;100715.34;5073636;28;20193;-73
2023/07/19 00:52:22;;;;;;;3.13;2.27;;;18.20;83.50;;;18.14;58.10;100709.09;5074036;28;20280;-73
2023/07/19 00:54:54;;;;;;;3.97;2.33;;;18.20;83.70;;;18.12;58.18;100704.91;5074113;28;20185;-73
2023/07/19 00:57:27;;;;;;;3.90;2.87;;;18.20;84.00;;;18.08;58.13;100706.41;5073147;28;20713;-73
2023/07/19 00:59:58;;;;;;;4.00;2.40;;;18.20;84.10;;;18.05;58.82;100698.66;5073540;28;20200;-73
2023/07/19 01:02:32;;;;;;;3.87;2.47;;;18.10;84.50;;;18.02;58.72;100704.50;5073446;28;20304;-73
2023/07/19 01:05:04;;;;;;;2.80;2.30;;;18.10;85.00;;;18.03;58.37;100706.19;5074062;28;20217;-73
2023/07/19 01:07:38;;;;;;;4.57;2.50;;;18.10;85.90;;;17.96;58.89;100699.94;5073156;28;20185;-73
2023/07/19 01:10:12;;;;;;;5.87;2.63;;;18.10;84.80;;;17.94;58.89;100696.59;5073448;28;20271;-73
2023/07/19 01:12:44;;;;;;;5.17;2.60;;;18.00;85.30;;;17.90;58.88;100690.78;5073399;28;20219;-73
2023/07/19 01:15:16;;;;;;;4.43;2.40;;;18.00;85.50;;;17.94;59.17;100691.19;5073313;28;20273;-73
2023/07/19 01:17:48;;;;;;;4.07;2.13;;;18.00;85.60;;;17.88;59.03;100686.59;5073357;28;20213;-73
2023/07/19 01:20:19;;;;;;;3.47;2.27;;;18.00;85.60;;;17.86;59.50;100688.69;5073009;28;20190;-73
2023/07/19 01:22:53;;;;;;;5.73;2.80;;;17.90;86.20;;;17.82;59.44;100685.56;5073238;28;20217;-73
2023/07/19 01:25:25;;;;;;;4.00;2.37;;;17.90;86.40;;;17.81;59.12;100685.78;5072860;28;20277;-73
2023/07/19 01:27:57;;;;;;;4.73;3.00;;;17.90;86.40;;;17.78;59.22;100689.72;5073243;28;20193;-73
2023/07/19 01:30:29;;;;;;;5.40;2.80;;;17.90;86.50;;;17.74;59.96;100680.34;5073252;28;20637;-73
2023/07/19 01:33:01;;;;;;;3.63;2.37;;;17.80;86.90;;;17.70;60.58;100679.94;5072898;28;20276;-73
2023/07/19 01:35:33;;;;;;;7.00;2.80;;;17.80;87.40;;;17.78;59.71;100687.00;5072794;28;20709;-73
2023/07/19 01:38:07;;;;;;;4.47;2.50;;;17.90;87.30;;;17.70;60.06;100685.38;5072790;28;20609;-73
2023/07/19 01:40:38;;;;;;;4.03;2.27;;;17.80;87.30;;;17.64;60.80;100685.34;5072826;28;20540;-73
2023/07/19 01:43:10;;;;;;;6.70;2.60;;;17.70;88.00;;;17.67;60.22;100679.53;5072637;28;20311;-73
2023/07/19 01:45:43;;;;;;;5.07;2.60;;;17.70;89.10;;;17.62;60.26;100682.84;5072992;28;20225;-73
2023/07/19 01:48:14;;;;;;;6.20;2.60;;;17.80;88.40;;;17.55;60.78;100684.69;5073043;28;20247;-73
2023/07/19 01:50:50;;;;;;;5.00;2.13;;;17.60;89.00;;;17.52;61.51;100685.09;5072996;28;20189;-73
2023/07/19 01:53:23;;;;;;;5.33;2.70;;;17.60;89.40;;;17.48;61.54;100674.88;5076819;28;20287;-73
2023/07/19 01:55:55;;;;;;;5.67;2.67;;;17.60;89.80;;;17.47;61.36;100667.78;5076638;28;20320;-73
2023/07/19 01:58:27;;;;;;;5.60;2.87;;;17.50;89.50;;;17.45;61.36;100662.59;5076407;28;20638;-73
2023/07/19 02:00:59;;;;;;;3.90;2.60;;;17.50;89.80;;;17.47;61.55;100662.38;5076649;28;20192;-73
2023/07/19 02:03:31;;;;;;;5.90;2.80;;;17.60;89.40;;;17.45;60.89;100659.06;5076335;28;20280;-73
2023/07/19 02:06:04;;;;;;;14.30;3.00;;;17.60;89.40;;;17.48;61.47;100659.47;5076142;28;20574;-73
2023/07/19 02:08:37;;;;;;;4.90;2.80;;;17.60;90.00;;;17.56;62.05;100655.78;5076508;28;20273;-73
2023/07/19 02:11:09;;;;;;;5.50;2.60;;;17.70;90.00;;;17.52;62.32;100660.75;5076235;28;20196;-73
2023/07/19 02:13:42;;;;;;;7.27;3.10;;;17.60;90.80;;;17.48;62.53;100670.31;5076462;28;20193;-73
2023/07/19 02:16:15;;;;;;;4.63;2.40;;;17.60;90.20;;;17.45;62.70;100670.72;5075982;28;20221;-73
2023/07/19 02:18:47;;;;;;;4.77;2.70;;;17.60;90.70;;;17.41;62.39;100664.06;5076342;28;20213;-73
2023/07/19 02:21:19;;;;;;;4.37;2.77;;;17.50;90.50;;;17.39;62.36;100659.91;5076229;28;20272;-73
2023/07/19 02:23:53;;;;;;;5.77;2.60;;;17.50;90.60;;;17.34;62.29;100665.91;5076243;28;20243;-73
2023/07/19 02:26:26;;;;;;;5.53;2.90;;;17.50;90.80;;;17.34;62.72;100657.78;5076146;28;20316;-73
2023/07/19 02:28:57;;;;;;;4.50;2.80;;;17.50;90.90;;;17.24;62.80;100652.78;5076207;28;20281;-73
2023/07/19 02:31:29;;;;;;;4.00;2.70;;;17.30;91.00;;;17.20;63.27;100645.28;5076131;28;20288;-73
2023/07/19 02:34:01;;;;;;;3.30;2.80;;;17.30;91.10;;;17.22;62.14;100644.06;5075796;28;20646;-73
2023/07/19 02:36:34;;;;;;;4.63;3.00;;;17.30;91.10;;;17.20;62.67;100645.28;5075656;28;20596;-73
2023/07/19 02:39:07;;;;;;;5.73;2.60;;;17.30;91.10;;;17.19;63.11;100643.63;5075676;28;20248;-73
2023/07/19 02:41:39;;;;;;;4.60;3.10;;;17.30;91.20;;;17.11;62.90;100635.72;5075473;28;20678;-73
2023/07/19 02:44:12;;;;;;;4.47;2.60;;;17.20;91.40;;;17.16;62.79;100639.44;5075841;28;20309;-73
2023/07/19 02:46:44;;;;;;;3.80;2.90;;;17.30;91.40;;;17.09;63.02;100646.72;5075470;28;20588;-73
2023/07/19 02:49:16;;;;;;;5.53;3.00;;;17.30;91.50;;;17.04;63.08;100640.25;5075807;28;20196;-73
2023/07/19 02:51:48;;;;;;;5.53;2.90;;;17.20;91.60;;;17.02;62.79;100642.34;5075740;28;20186;-73
2023/07/19 02:54:22;;;;;;;4.43;2.70;;;17.20;92.00;;;17.06;62.95;100639.00;5075422;28;20553;-73
2023/07/19 02:56:54;;;;;;;5.33;2.70;;;17.20;91.80;;;17.16;63.44;100638.63;5075291;28;20788;-73
2023/07/19 02:59:26;;;;;;;5.17;2.70;;;17.40;91.50;;;17.15;63.20;100642.38;5075630;28;20616;-73
2023/07/19 03:01:58;;;;;;;7.00;2.97;;;17.30;91.70;;;17.06;63.56;100644.44;5075509;28;20210;-73
2023/07/19 03:04:30;;;;;;;4.37;2.80;;;17.30;91.90;;;17.03;63.55;100644.00;5074577;28;20186;-73
2023/07/19 03:07:02;;;;;;;3.93;2.93;;;17.20;92.20;;;16.97;63.65;100634.00;5075365;28;20229;-73
2023/07/19 03:09:35;;;;;;;5.50;2.60;;;17.10;92.20;;;16.95;64.35;100631.50;5075104;28;20713;-73
2023/07/19 03:12:09;;;;;;;6.13;3.00;;;17.10;92.30;;;16.92;64.23;100633.81;5075382;28;20292;-73
2023/07/19 03:14:41;;;;;;;4.97;2.80;;;17.00;92.50;;;16.93;64.80;100628.16;5075326;28;20232;-73
2023/07/19 03:17:13;;;;;;;5.10;2.80;;;17.10;92.80;;;16.97;64.49;100618.63;5075199;28;20268;-73
2023/07/19 03:19:49;;;;;;;5.67;2.90;;;17.20;92.80;;;16.97;64.96;100623.19;5075210;28;20221;-73
2023/07/19 03:22:21;;;;;;;4.47;2.83;;;17.10;93.10;;;17.01;64.77;100619.88;5074780;28;20706;-73
2023/07/19 03:24:54;;;;;;;8.50;3.27;;;17.20;93.10;;;16.98;65.02;100619.44;5075112;28;20213;-73
2023/07/19 03:27:26;;;;;;;5.30;3.03;;;17.20;93.20;;;16.98;65.18;100619.44;5074875;28;20264;-73
2023/07/19 03:29:58;;;;;;;5.23;3.30;;;17.20;93.30;;;16.94;66.28;100629.00;5075034;28;20194;-73
2023/07/19 03:32:31;;;;;;;7.97;2.90;;;17.10;93.90;;;16.96;65.75;100627.75;5074563;28;20637;-73
2023/07/19 03:35:03;;;;;;;6.23;3.03;;;17.10;93.60;;;16.93;66.06;100638.16;5074873;28;20190;-73
2023/07/19 03:37:35;;;;;;;6.60;3.10;;;17.10;93.70;;;16.96;64.66;100625.06;5074506;28;20677;-74
2023/07/19 03:40:10;;;;;;;6.93;3.33;;;17.20;93.30;;;16.95;65.15;100626.09;5075613;28;20201;-73
2023/07/19 03:42:42;;;;;;;8.83;3.37;;;17.10;93.40;;;16.87;65.52;100622.75;5074350;28;20316;-73
2023/07/19 03:45:16;;;;;;;4.50;2.90;;;17.00;93.50;;;16.93;65.35;100621.91;5074609;28;20284;-73
2023/07/19 03:47:48;;;;;;;8.30;3.07;;;17.10;93.70;;;16.93;65.72;100617.34;5074290;28;20557;-73
2023/07/19 03:50:22;;;;;;;7.67;3.00;;;17.20;93.50;;;16.90;66.08;100611.53;5074606;28;20217;-73
2023/07/19 03:52:54;;;;;;;4.67;2.90;;;17.10;93.70;;;16.86;65.85;100610.25;5074227;28;20196;-73
2023/07/19 03:55:27;;;;;;;5.10;3.20;;;17.10;93.60;;;16.80;66.02;100611.91;5074104;28;20642;-73
2023/07/19 03:57:59;;;;;;;5.17;3.07;;;17.00;93.80;;;16.76;66.93;100617.91;5074180;28;20630;-73
2023/07/19 04:00:31;;;;;;;7.10;3.13;;;17.00;94.00;;;16.76;65.92;100616.06;5074407;28;20185;-73
2023/07/19 04:03:03;;;;;;;6.10;3.67;;;17.00;94.10;;;16.75;66.18;100613.56;5074219;28;20210;-73
2023/07/19 04:05:34;;;;;;;7.10;3.20;;;16.90;94.10;;;16.73;67.28;100614.59;5074249;28;20225;-73
2023/07/19 04:08:09;;;;;;;4.57;2.87;;;16.90;94.30;;;16.70;67.08;100614.16;5074234;28;20289;-73
2023/07/19 04:10:43;;;;;;;5.93;3.10;;;16.90;94.40;;;16.70;67.44;100617.72;5073873;28;20633;-73
2023/07/19 04:13:16;;;;;;;4.33;3.10;;;16.90;94.50;;;16.67;67.73;100607.31;5073817;28;20667;-73
2023/07/19 04:15:48;;;;;;;5.97;2.97;;;16.90;94.70;;;16.66;67.07;100616.44;5073174;28;20238;-73
2023/07/19 04:18:20;;;;;;;3.07;2.70;;;16.90;94.90;;;16.65;67.78;100614.78;5074081;28;20236;-73
2023/07/19 04:20:56;;;;;;;4.50;2.87;;;16.90;95.00;;;16.61;67.69;100618.91;5074003;28;20186;-73
2023/07/19 04:23:29;;;;;;;6.47;2.90;;;16.80;94.90;;;16.62;67.50;100614.34;5073881;28;20209;-73
2023/07/19 04:26:05;;;;;;;2.83;2.60;;;16.90;94.90;;;16.61;67.77;100608.09;5073819;28;20312;-73
2023/07/19 04:28:36;;;;;;;9.47;3.40;;;16.80;95.10;;;16.64;67.81;100609.59;5073941;28;20193;-73
2023/07/19 04:31:08;;;;;;;7.07;3.20;;;16.90;95.00;;;16.64;66.48;100607.69;5073534;28;20653;-73
2023/07/19 04:33:40;;;;;;;6.40;3.07;;;16.90;94.70;;;16.62;66.91;100598.97;5073840;28;20217;-73
2023/07/19 04:36:18;;;;;;;5.87;2.97;;;16.90;94.70;;;16.61;67.05;100602.69;5073700;28;20228;-73
2023/07/19 04:38:50;;;;;;;4.63;2.80;;;16.80;94.70;;;16.63;66.77;100600.63;5073468;28;20185;-73
2023/07/19 04:41:23;;;;;;;5.53;2.93;;;16.90;94.60;;;16.65;66.02;100603.13;5073605;28;20280;-73
2023/07/19 04:43:55;;;;;;;4.83;3.07;;;16.90;94.40;;;16.67;67.22;100610.00;5073607;28;20205;-73
2023/07/19 04:46:28;;;;;;;7.03;2.67;;;16.90;94.70;;;16.66;67.29;100599.38;5073588;28;20256;-73
2023/07/19 04:49:00;;;;;;;6.93;2.90;;;16.90;94.70;;;16.66;66.62;100605.63;5073666;28;20634;-73
2023/07/19 04:51:32;;;;;;;5.37;2.83;;;17.00;94.60;;;16.68;67.09;100614.38;5073620;28;20195;-73
2023/07/19 04:54:04;;;;;;;5.23;2.90;;;17.00;95.00;;;16.71;68.69;100607.75;5073274;28;20276;-73
2023/07/19 04:56:37;;;;;;;4.10;2.70;;;16.90;95.60;;;16.71;67.94;100608.53;5073495;28;20230;-73
2023/07/19 04:59:09;;;;;;;5.87;3.37;;;17.00;95.50;;;16.71;67.90;100602.34;5073228;28;20729;-73
2023/07/19 05:01:41;;;;;;;4.20;3.30;;;17.00;95.40;;;16.72;68.21;100602.09;5073536;28;20284;-73
2023/07/19 05:04:13;;;;;;;4.87;2.97;;;17.00;95.50;;;16.71;68.48;100592.31;5073435;28;20217;-73
2023/07/19 05:06:44;;;;;;;3.90;2.70;;;17.00;95.70;;;16.72;67.70;100594.00;5073377;28;20294;-73
2023/07/19 05:09:17;;;;;;;7.27;3.43;;;17.00;95.50;;;16.68;66.57;100606.25;5073447;28;20268;-73
2023/07/19 05:11:50;;;;;;;7.43;3.27;;;17.00;94.60;;;16.69;66.54;100602.53;5073425;28;20331;-73
2023/07/19 05:14:23;;;;;;;5.50;3.10;;;17.00;94.40;;;16.72;66.47;100599.41;5073440;28;20196;-73
2023/07/19 05:16:55;;;;;;;6.17;2.97;;;17.00;94.50;;;16.74;66.17;100596.50;5073255;28;20225;-73
2023/07/19 05:19:29;;;;;;;17.53;4.17;;;17.00;94.50;;;16.68;66.42;100600.84;5072959;28;20196;-73
2023/07/19 05:22:01;;;;;;;13.07;3.30;;;17.00;94.00;;;16.65;66.19;100600.41;5073356;28;20190;-73
2023/07/19 05:24:33;;;;;;;7.90;3.43;;;16.90;94.10;;;16.62;65.48;100604.38;5073255;28;20292;-73
2023/07/19 05:27:07;;;;;;;5.33;3.13;;;17.00;94.00;;;16.59;65.74;100604.78;5075220;28;20320;-73
2023/07/19 05:29:40;;;;;;;6.53;3.23;;;16.90;93.60;;;16.61;65.24;100610.00;5077311;28;20194;-73
2023/07/19 05:32:12;;;;;;;8.30;3.57;;;17.00;93.60;;;16.63;64.62;100600.63;5077274;28;20275;-73
2023/07/19 05:34:44;;;;;;;7.07;3.13;;;17.00;93.50;;;16.70;65.12;100597.94;5077221;28;20614;-73
2023/07/19 05:37:16;;;;;;;5.03;3.00;;;17.10;93.50;;;16.70;65.51;100601.50;5077069;28;20375;-73
2023/07/19 05:39:49;;;;;;;5.70;3.00;;;17.10;93.50;;;16.72;65.02;100594.00;5076809;28;20563;-73
2023/07/19 05:42:22;;;;;;;4.57;3.17;;;17.10;93.10;;;16.79;64.72;100582.38;5076771;28;20296;-73
2023/07/19 05:44:54;;;;;;;4.27;3.07;;;17.10;93.70;;;16.83;64.58;100586.34;5076994;28;20214;-73
2023/07/19 05:47:26;;;;;;;6.90;3.70;;;17.20;93.30;;;16.84;65.17;100585.31;5076615;28;20260;-73
2023/07/19 05:50:01;;;;;;;4.50;2.93;;;17.20;93.20;;;16.85;64.38;100586.97;5076906;28;20246;-73
2023/07/19 05:52:33;;;;;;;5.63;3.47;;;17.30;93.20;;;16.81;64.02;100583.84;5076910;28;20194;-73
2023/07/19 05:55:05;;;;;;;8.20;3.03;;;17.20;93.00;;;16.88;64.32;100583.88;5076484;28;20638;-73
2023/07/19 05:57:39;;;;;;;4.27;2.90;;;17.30;93.20;;;16.92;63.55;100582.41;5076801;28;20197;-73
2023/07/19 06:00:24;;;;;;;4.27;3.30;;;17.30;93.00;;;16.94;63.41;100581.16;5076706;28;20193;-73
2023/07/19 06:02:56;;;;;;;7.97;3.33;;;17.40;92.90;;;16.96;63.49;100576.38;5076664;28;20198;-73
2023/07/19 06:05:29;;;;;;;5.03;2.80;;;17.40;92.60;;;16.99;63.07;100583.22;5076495;28;20229;-73
2023/07/19 06:08:01;;;;;;;5.40;3.30;;;17.40;92.40;;;17.01;62.52;100584.72;5076288;28;20284;-73
2023/07/19 06:10:53;;;;;;;8.10;3.17;;;17.40;92.10;;;17.01;63.35;100586.59;5076975;28;20205;-73
2023/07/19 06:13:26;;;;;;;5.53;3.20;;;17.40;92.30;;;17.02;62.98;100582.84;5076485;28;20243;-73
2023/07/19 06:15:58;;;;;;;6.17;2.90;;;17.40;92.40;;;17.08;63.26;100579.31;5076317;28;20226;-73
2023/07/19 06:18:30;;;;;;;6.20;3.00;;;17.50;92.60;;;17.18;63.37;100587.84;5076414;28;20189;-73
2023/07/19 06:21:02;;;;;;;4.50;2.60;;;17.60;92.40;;;17.28;62.85;100585.56;5076025;28;20185;-73
2023/07/19 06:23:34;;;;;;;5.40;3.20;;;17.80;92.10;;;17.39;62.65;100584.97;5076239;28;20253;-73
2023/07/19 06:26:06;;;;;;;4.90;2.83;;;17.80;91.70;;;17.48;61.93;100586.41;5075839;28;20309;-73
2023/07/19 06:28:39;;;;;;;3.87;2.90;;;17.90;91.20;;;17.58;61.74;100578.72;5075919;28;20220;-73
2023/07/19 06:31:11;;;;;;;7.37;3.00;;;18.10;91.10;;;17.76;60.20;100582.66;5076195;28;20221;-73
2023/07/19 06:33:43;;;;;;;6.67;3.00;;;18.20;90.80;;;17.92;59.97;100598.44;5075815;28;20647;-73
2023/07/19 06:36:15;;;;;;;5.23;2.87;;;18.40;90.30;;;17.89;60.83;100596.16;5075617;28;20729;-73
2023/07/19 06:38:48;;;;;;;5.10;2.77;;;18.40;90.80;;;17.95;61.10;100598.88;5074920;28;20193;-73
2023/07/19 06:41:22;;;;;;;11.03;3.40;;;18.40;91.30;;;18.15;59.02;100596.13;5075808;28;20292;-73
2023/07/19 06:43:57;;;;;;;3.80;2.60;;;18.60;89.10;;;18.29;58.79;100589.59;5075584;28;20210;-73
2023/07/19 06:46:30;;;;;;;4.47;2.80;;;18.80;88.80;;;18.42;57.46;100586.84;5075834;28;20229;-73
2023/07/19 06:49:02;;;;;;;6.93;3.00;;;18.90;87.00;;;18.43;57.58;100588.50;5075813;28;20193;-74
2023/07/19 06:51:34;;;;;;;5.40;3.10;;;18.90;86.70;;;18.47;56.98;100591.63;5075844;28;20230;-74
2023/07/19 06:54:06;;;;;;;8.77;3.03;;;19.00;86.30;;;18.54;56.83;100598.72;5075763;28;20240;-74
2023/07/19 06:56:46;;;;;;;8.27;2.87;;;19.10;85.70;;;18.66;57.11;100588.84;5075345;28;20747;-73
2023/07/19 06:59:19;;;;;;;5.67;2.53;;;19.20;86.00;;;18.66;56.87;100591.53;5075388;28;20717;-73
2023/07/19 07:01:51;;;;;;;5.13;2.67;;;19.20;86.60;;;18.76;56.04;100593.81;5075313;28;20194;-73
2023/07/19 07:04:23;;;;;;;8.00;2.93;;;19.30;84.60;;;18.81;55.02;100583.13;5075489;28;20301;-73
2023/07/19 07:06:56;;;;;;;5.13;2.43;;;19.30;83.90;;;18.97;53.71;100592.66;5075078;28;20225;-73
2023/07/19 07:09:28;;;;;;;14.23;3.03;;;19.50;81.70;;;18.99;52.23;100596.78;5075482;28;20288;-73
2023/07/19 07:12:01;;;;;;;7.27;2.60;;;19.50;79.50;;;18.96;55.00;100593.69;5075075;28;20633;-74
2023/07/19 07:14:35;;;;;;;6.60;2.90;;;19.50;82.70;;;18.95;53.81;100592.00;5075054;28;20665;-74
2023/07/19 07:17:09;;;;;;;6.13;2.60;;;19.40;81.30;;;18.94;53.22;100593.09;5075236;28;20323;-73
2023/07/19 07:19:41;;;;;;;7.87;2.70;;;19.40;80.80;;;19.02;51.35;100590.94;5075221;28;20185;-74
2023/07/19 07:22:13;;;;;;;9.40;3.10;;;19.50;78.40;;;19.07;51.90;100595.72;5075011;28;20232;-74
2023/07/19 07:24:45;;;;;;;9.17;3.00;;;19.50;78.50;;;19.11;51.55;100596.94;5074891;28;20214;-73
2023/07/19 07:27:17;;;;;;;6.20;3.07;;;19.60;78.60;;;19.11;52.57;100594.22;5074842;28;20323;-73
2023/07/19 07:29:50;;;;;;;10.23;4.50;;;19.50;79.10;;;19.14;52.94;100600.03;5074985;28;20194;-75
2023/07/19 07:32:22;;;;;;;4.97;3.20;;;19.60;80.20;;;19.24;52.48;100602.28;5075051;28;20221;-74
2023/07/19 07:34:54;;;;;;;7.90;3.33;;;19.70;79.40;;;19.39;51.40;100604.63;5074938;28;20236;-74
2023/07/19 07:37:26;;;;;;;9.03;2.90;;;19.80;77.50;;;19.36;52.07;100603.22;5074834;28;20231;-74
2023/07/19 07:39:58;;;;;;;7.73;2.83;;;19.80;78.30;;;19.34;52.76;100596.34;5074829;28;20284;-74
2023/07/19 07:42:29;;;;;;;8.67;2.90;;;19.80;80.70;;;19.37;51.10;100596.75;5074368;28;20219;-74
2023/07/19 07:45:03;;;;;;;8.37;2.60;;;19.80;77.30;;;19.36;52.71;100586.91;5074681;28;20209;-74
2023/07/19 07:47:36;;;;;;;8.07;3.40;;;19.80;78.90;;;19.45;52.08;100599.19;5074951;28;20189;-74
2023/07/19 07:50:10;;;;;;;3.67;2.60;;;19.90;78.80;;;19.49;51.83;100592.25;5074379;28;20213;-74
2023/07/19 07:52:43;;;;;;;5.70;2.67;;;19.90;78.80;;;19.55;52.23;100588.69;5074625;28;20211;-74
2023/07/19 07:55:26;;;;;;;5.77;3.07;;;20.00;78.30;;;19.56;52.39;100592.22;5074394;28;20190;-73
2023/07/19 07:57:59;;;;;;;9.90;3.00;;;20.00;78.30;;;19.61;51.90;100587.78;5074443;28;20182;-73
2023/07/19 08:00:32;;;;;;;7.23;2.97;;;20.10;77.70;;;19.63;51.82;100588.38;5074414;28;20280;-73
2023/07/19 08:03:04;;;;;;;4.97;2.40;;;20.10;77.80;;;19.69;50.84;100590.19;5074352;28;20221;-73
2023/07/19 08:05:37;;;;;;;4.67;2.57;;;20.10;76.30;;;19.70;52.05;100583.72;5073865;28;20706;-73
2023/07/19 08:08:09;;;;;;;6.70;2.93;;;20.20;77.50;;;19.73;51.02;100591.41;5074225;28;20296;-73
2023/07/19 08:10:42;;;;;;;7.43;3.00;;;20.20;77.20;;;19.78;51.22;100588.03;5074220;28;20277;-73
2023/07/19 08:13:15;;;;;;;3.70;2.30;;;20.20;76.60;;;19.81;49.96;100581.31;5074192;28;20197;-73
2023/07/19 08:15:48;;;;;;;5.27;2.70;;;20.20;75.10;;;19.90;50.36;100586.25;5074061;28;20229;-73
2023/07/19 08:18:20;;;;;;;3.13;2.37;;;20.30;75.20;;;20.00;48.68;100593.91;5073758;28;20281;-74
2023/07/19 08:20:53;;;;;;;3.80;2.27;;;20.40;73.50;;;20.06;49.46;100595.69;5073713;28;20614;-74
2023/07/19 08:23:25;;;;;;;8.63;2.70;;;20.50;74.40;;;20.09;49.27;100595.25;5074002;28;20189;-74
2023/07/19 08:25:59;;;;;;;3.50;2.40;;;20.50;74.50;;;20.09;50.06;100590.66;5073523;28;20669;-74
2023/07/19 08:28:31;;;;;;;2.73;2.10;;;20.50;75.00;;;20.13;49.40;100593.75;5073908;28;20189;-74
2023/07/19 08:31:05;;;;;;;4.97;2.50;;;20.50;74.80;;;20.15;51.35;100592.44;5073923;28;20285;-74
2023/07/19 08:33:37;;;;;;;4.03;2.40;;;20.60;77.00;;;20.22;50.34;100590.50;5073926;28;20196;-73
2023/07/19 08:36:08;;;;;;;6.13;2.60;;;20.70;75.30;;;20.35;51.94;100584.09;5073732;28;20308;-74
2023/07/19 08:38:40;;;;;;;4.07;2.40;;;20.80;77.40;;;20.41;49.32;100585.09;5073786;28;20287;-74
2023/07/19 08:41:21;;;;;;;3.40;2.40;;;20.90;74.30;;;20.45;50.42;100591.72;5073717;28;20240;-74
2023/07/19 08:43:57;;;;;;;6.40;2.93;;;20.90;75.60;;;20.52;50.48;100587.84;5073400;28;20189;-74
2023/07/19 08:46:30;;;;;;;4.87;2.70;;;20.90;75.50;;;20.60;50.86;100582.09;5073510;28;20262;-74
2023/07/19 08:49:02;;;;;;;7.07;2.63;;;21.00;76.30;;;20.68;51.24;100586.41;5073619;28;20194;-74
2023/07/19 08:51:38;;;;;;;6.00;2.97;;;21.10;76.80;;;20.82;50.23;100578.91;5073613;28;20259;-73
2023/07/19 08:54:11;;;;;;;7.27;2.70;;;21.30;75.10;;;20.91;50.16;100583.78;5073541;28;20239;-74
2023/07/19 09:00:50;;;;;;;7.60;2.87;;;21.40;76.10;;;21.00;51.17;100576.94;5073375;28;20646;-74
2023/07/19 09:03:23;;;;;;;4.73;2.20;;;21.40;76.30;;;21.00;50.58;100576.09;5073461;28;20240;-74
2023/07/19 09:05:58;;;;;;;5.50;2.50;;;21.40;75.10;;;21.00;51.22;100581.53;5073378;28;20348;-74
2023/07/19 09:08:41;;;;;;;6.23;2.57;;;21.40;76.80;;;21.06;51.67;100575.19;5073474;28;20242;-74
2023/07/19 09:11:19;;;;;;;2.97;2.40;;;21.50;76.90;;;21.14;52.35;100569.41;5073109;28;20653;-73
2023/07/19 09:13:59;;;;;;;8.77;3.37;;;21.50;78.60;;;21.27;52.25;100577.38;5073432;28;20276;-73
2023/07/19 09:16:35;;;;;;;6.37;2.67;;;21.70;78.00;;;21.36;50.07;100570.53;5073262;28;20256;-73
2023/07/19 09:19:10;;;;;;;7.27;2.90;;;21.80;76.40;;;21.33;51.46;100571.00;5073043;28;20211;-73
2023/07/19 09:21:47;;;;;;;5.53;3.10;;;21.70;77.80;;;21.35;51.43;100574.31;5073180;28;20186;-73
2023/07/19 09:24:18;;;;;;;4.37;2.70;;;21.70;76.50;;;21.46;50.35;100576.22;5072879;28;20645;-73
2023/07/19 09:26:55;;;;;;;6.17;2.90;;;21.90;75.50;;;21.59;49.77;100576.00;5072810;28;20235;-73
2023/07/19 09:29:31;;;;;;;19.93;3.80;;;22.00;75.30;;;21.66;50.63;100570.44;5072954;28;20189;-73
2023/07/19 09:32:06;;;;;;;8.77;2.70;;;22.10;75.80;;;21.80;50.04;100568.28;5073258;28;20225;-73
2023/07/19 09:34:41;;;;;;;4.07;3.20;;;22.20;75.00;;;21.85;49.57;100562.97;5072949;28;20710;-73
2023/07/19 09:37:13;;;;;;;10.00;3.63;;;22.20;74.10;;;21.92;49.65;100569.16;5073294;28;20308;-73
2023/07/19 09:39:45;;;;;;;5.73;3.10;;;22.30;74.90;;;21.92;51.93;100569.16;5073212;28;20193;-73
2023/07/19 09:42:17;;;;;;;7.70;3.23;;;22.30;77.00;;;22.10;49.59;100566.28;5072671;28;20300;-73
2023/07/19 09:44:53;;;;;;;132.50;15.10;;;22.50;75.00;;;22.37;49.30;100559.22;5073044;28;20193;-73
2023/07/19 09:47:28;;;;;;;12.07;3.40;;;22.60;74.70;;;22.33;48.94;100560.75;5072672;28;20765;-73
2023/07/19 09:50:04;;;;;;;6.97;3.27;;;22.70;73.40;;;22.40;48.41;100561.47;5072852;28;20630;-73
2023/07/19 09:52:40;;;;;;;6.70;3.47;;;22.80;72.70;;;22.45;48.31;100561.56;5073115;28;20272;-73
2023/07/19 09:55:14;;;;;;;6.13;3.07;;;22.80;73.60;;;22.44;48.49;100562.63;5072961;28;20529;-74
2023/07/19 09:57:51;;;;;;;7.33;3.10;;;22.80;72.80;;;22.51;48.99;100559.75;5073013;28;20190;-74
2023/07/19 10:00:23;;;;;;;7.63;2.83;;;22.80;73.60;;;22.66;47.33;100566.41;5072667;28;20211;-74
2023/07/19 10:02:55;;;;;;;4.90;2.27;;;23.00;71.10;;;22.65;48.23;100559.25;5072833;28;20201;-74
2023/07/19 10:05:32;;;;;;;8.33;3.00;;;23.00;72.20;;;22.67;47.41;100557.13;5072705;28;20263;-74
2023/07/19 10:08:11;;;;;;;7.10;2.47;;;23.00;71.00;;;22.70;47.07;100555.81;5072821;28;20190;-74
2023/07/19 10:10:44;;;;;;;9.83;2.87;;;23.00;71.30;;;22.90;46.33;100555.38;5072580;28;20276;-74
2023/07/19 10:13:16;;;;;;;4.97;2.40;;;23.20;70.00;;;22.91;47.08;100557.84;5074923;28;20196;-74
2023/07/19 10:15:55;;;;;;;12.90;3.53;;;23.20;71.60;;;23.01;45.67;100546.28;5076071;28;20236;-74
2023/07/19 10:18:29;;;;;;;22.13;3.90;;;23.30;69.20;;;23.12;46.10;100550.81;5076486;28;20185;-74
2023/07/19 10:21:07;;;;;;;9.10;2.70;;;23.40;69.30;;;23.10;46.65;100556.56;5076027;28;20665;-74
2023/07/19 10:23:39;;;;;;;8.80;2.90;;;23.40;69.80;;;23.06;45.29;100560.00;5076081;28;20280;-74
2023/07/19 10:26:12;;;;;;;4.17;2.40;;;23.30;69.40;;;23.16;45.30;100549.25;5076246;28;20282;-74
2023/07/19 10:29:00;;;;;;;6.10;2.40;;;23.40;68.90;;;23.20;44.71;100561.34;5076222;28;20280;-74
2023/07/19 10:31:32;;;;;;;3.43;2.17;;;23.40;67.40;;;23.25;43.67;100564.19;5076221;28;20193;-74
2023/07/19 10:34:05;;;;;;;5.37;2.47;;;23.50;64.80;;;23.37;43.19;100555.91;5076146;28;20218;-74
2023/07/19 10:36:48;;;;;;;6.57;2.37;;;23.60;64.90;;;23.42;41.58;100559.59;5075783;28;20225;-74
2023/07/19 10:39:19;;;;;;;12.27;3.03;;;23.60;62.90;;;23.50;41.02;100563.78;5076094;28;20240;-74
2023/07/19 10:41:56;;;;;;;5.57;2.30;;;23.70;62.10;;;23.58;42.53;100563.38;5075753;28;20217;-74